createdAt,value
2022-08-22T04:15:36.022Z,26.11
2022-08-22T04:18:25.360Z,25.91
2022-08-22T04:21:26.091Z,25.98
2022-08-22T04:24:31.921Z,25.99
2022-08-22T04:27:07.380Z,26.11
2022-08-22T04:29:43.973Z,26.10
2022-08-22T04:32:19.411Z,26.07
2022-08-22T04:34:51.793Z,26.09
2022-08-22T04:37:26.341Z,26.13
2022-08-22T04:40:00.923Z,26.13
2022-08-22T04:42:34.569Z,26.14
2022-08-22T04:45:10.686Z,26.20
2022-08-22T04:47:43.800Z,26.18
2022-08-22T04:50:21.282Z,26.17
2022-08-22T04:53:15.094Z,26.15
2022-08-22T04:55:53.616Z,26.16
2022-08-22T04:58:34.375Z,26.05
2022-08-22T05:01:12.090Z,26.16
2022-08-22T05:03:47.046Z,26.12
2022-08-22T05:06:19.287Z,26.18
2022-08-22T05:08:54.010Z,26.18
2022-08-22T05:11:25.169Z,26.20
2022-08-22T05:13:57.888Z,26.18
2022-08-22T05:16:33.126Z,26.18
2022-08-22T05:19:06.702Z,26.09
2022-08-22T05:21:39.113Z,26.18
2022-08-22T05:24:11.999Z,26.23
2022-08-22T05:26:44.584Z,26.20
2022-08-22T05:29:15.942Z,26.24
2022-08-22T05:31:49.886Z,26.20
2022-08-22T05:34:24.128Z,26.20
2022-08-22T05:36:56.841Z,26.16
2022-08-22T05:39:27.912Z,26.20
2022-08-22T05:42:03.403Z,26.24
2022-08-22T05:44:34.382Z,26.24
2022-08-22T05:47:06.544Z,26.15
2022-08-22T05:49:41.576Z,26.17
2022-08-22T05:52:22.568Z,26.17
2022-08-22T05:54:57.315Z,26.22
2022-08-22T05:57:31.427Z,26.21
2022-08-22T06:00:04.698Z,26.08
2022-08-22T06:02:53.635Z,25.94
2022-08-22T06:05:28.744Z,25.82
2022-08-22T06:08:04.552Z,26.03
2022-08-22T06:10:41.264Z,26.03
2022-08-22T06:13:16.435Z,26.13
2022-08-22T06:15:57.870Z,26.05
2022-08-22T06:18:28.758Z,26.09
2022-08-22T06:21:02.129Z,25.96
2022-08-22T06:23:35.178Z,26.02
2022-08-22T06:26:05.497Z,26.04
2022-08-22T06:28:38.536Z,26.05
2022-08-22T06:31:28.015Z,25.96
2022-08-22T06:34:01.045Z,26.04
2022-08-22T06:36:33.286Z,26.06
2022-08-22T06:39:11.371Z,26.07
2022-08-22T06:41:44.519Z,26.13
2022-08-22T06:44:18.809Z,26.19
2022-08-22T06:46:50.307Z,26.18
2022-08-22T06:49:20.495Z,26.25
2022-08-22T06:51:52.251Z,26.18
2022-08-22T06:54:25.893Z,26.21
2022-08-22T06:56:56.538Z,26.09
2022-08-22T06:59:28.912Z,26.11
2022-08-22T07:02:04.234Z,26.20
2022-08-22T07:04:33.244Z,26.17
2022-08-22T07:07:03.748Z,26.14
2022-08-22T07:09:35.896Z,26.12
2022-08-22T07:12:12.207Z,26.18
2022-08-22T07:14:42.977Z,26.06
2022-08-22T07:17:18.723Z,26.09
2022-08-22T07:19:55.392Z,26.14
2022-08-22T07:22:27.842Z,26.15
2022-08-22T07:25:00.647Z,26.18
2022-08-22T07:27:42.414Z,26.25
2022-08-22T07:30:14.093Z,26.14
2022-08-22T07:32:51.544Z,26.20
2022-08-22T07:35:23.245Z,26.17
2022-08-22T07:38:05.330Z,26.19
2022-08-22T07:40:41.571Z,26.20
2022-08-22T07:43:29.793Z,26.27
2022-08-22T07:46:01.621Z,26.22
2022-08-22T07:48:38.296Z,26.28
2022-08-22T07:51:19.450Z,26.27
2022-08-22T07:54:00.706Z,26.27
2022-08-22T07:56:33.274Z,26.26
2022-08-22T07:59:13.073Z,26.29
2022-08-22T08:01:46.953Z,26.29
2022-08-22T08:04:18.960Z,26.38
2022-08-22T08:06:49.450Z,26.37
2022-08-22T08:09:20.562Z,26.40
2022-08-22T08:11:52.339Z,26.39
2022-08-22T08:14:23.532Z,26.34
2022-08-22T08:17:02.559Z,26.35
2022-08-22T08:19:32.943Z,26.38
2022-08-22T08:22:01.642Z,26.44
2022-08-22T08:24:39.977Z,26.44
2022-08-22T08:27:33.503Z,26.36
2022-08-22T08:30:07.062Z,26.35
2022-08-22T08:32:39.599Z,26.46
2022-08-22T08:35:23.488Z,26.44
2022-08-22T08:38:00.134Z,26.43
2022-08-22T08:40:51.674Z,26.43
2022-08-22T08:43:30.077Z,26.43
2022-08-22T08:46:24.941Z,26.43
2022-08-22T08:49:26.328Z,26.46
2022-08-22T08:52:44.027Z,26.46
2022-08-22T08:58:32.048Z,26.44
2022-08-22T09:01:14.122Z,26.51
2022-08-22T09:04:20.781Z,26.52
2022-08-22T09:07:11.607Z,26.52
2022-08-22T09:13:12.370Z,26.50
2022-08-22T09:16:05.430Z,26.52
2022-08-22T09:18:57.228Z,26.51
2022-08-22T09:21:47.218Z,26.58
2022-08-22T09:24:52.624Z,26.62
2022-08-22T09:27:33.792Z,26.58
2022-08-22T09:30:11.619Z,26.68
2022-08-22T09:32:54.654Z,26.66
2022-08-22T09:35:29.532Z,26.73
2022-08-22T09:38:15.088Z,26.70
2022-08-22T09:40:15.240Z,26.53
2022-08-22T09:40:53.766Z,26.75
2022-08-22T09:43:26.094Z,26.85
2022-08-22T09:46:08.545Z,26.91
2022-08-22T09:49:02.182Z,26.88
2022-08-22T09:51:39.867Z,26.92
2022-08-22T09:54:23.625Z,26.88
2022-08-22T09:57:16.838Z,26.94
2022-08-22T09:59:58.085Z,26.97
2022-08-22T10:02:36.100Z,27.00
2022-08-22T10:05:40.325Z,27.05
2022-08-22T10:08:12.928Z,27.07
2022-08-22T10:11:12.460Z,27.07
2022-08-22T10:13:57.801Z,27.01
2022-08-22T10:16:54.820Z,27.09
2022-08-22T10:19:29.857Z,27.04
2022-08-22T10:22:37.894Z,27.10
2022-08-22T10:25:21.602Z,27.02
2022-08-22T10:28:10.507Z,27.02
2022-08-22T10:30:45.888Z,27.15
2022-08-22T10:33:19.263Z,27.09
2022-08-22T10:36:01.063Z,27.17
2022-08-22T10:38:44.004Z,27.11
2022-08-22T10:41:28.717Z,27.08
2022-08-22T10:44:08.772Z,27.08
2022-08-22T10:46:46.231Z,27.18
2022-08-22T10:49:22.615Z,27.20
2022-08-22T10:52:14.739Z,27.17
2022-08-22T10:54:49.566Z,27.14
2022-08-22T10:57:36.554Z,27.19
2022-08-22T11:00:14.622Z,27.17
2022-08-22T11:02:55.628Z,27.26
2022-08-22T11:05:50.178Z,27.18
2022-08-22T11:08:48.223Z,27.22
2022-08-22T11:11:37.918Z,27.29
2022-08-22T11:14:35.915Z,27.27
2022-08-22T11:17:31.017Z,27.28
2022-08-22T11:20:13.691Z,27.29
2022-08-22T11:22:55.746Z,27.30
2022-08-22T11:25:41.233Z,27.31
2022-08-22T11:28:31.955Z,27.31
2022-08-22T11:31:08.946Z,27.37
2022-08-22T11:33:47.229Z,27.34
2022-08-22T11:36:31.146Z,27.32
2022-08-22T11:39:24.663Z,27.27
2022-08-22T11:42:05.386Z,27.35
2022-08-22T11:44:50.514Z,27.32
2022-08-22T11:47:26.862Z,27.44
2022-08-22T11:50:02.465Z,27.48
2022-08-22T11:53:05.380Z,27.33
2022-08-22T11:55:42.053Z,27.38
2022-08-22T11:58:32.113Z,27.45
2022-08-22T12:01:06.063Z,27.53
2022-08-22T12:03:58.641Z,27.46
2022-08-22T12:06:42.339Z,27.49
2022-08-22T12:09:20.165Z,27.56
2022-08-22T12:12:01.442Z,27.47
2022-08-22T12:14:39.300Z,27.59
2022-08-22T12:17:55.780Z,27.54
2022-08-22T12:20:39.213Z,27.49
2022-08-22T12:23:48.588Z,27.51
2022-08-22T12:26:27.164Z,27.63
2022-08-22T12:29:15.480Z,27.53
2022-08-22T12:32:27.647Z,27.47
2022-08-22T12:35:15.934Z,27.61
2022-08-22T12:37:52.990Z,27.61
2022-08-22T12:40:36.442Z,27.60
2022-08-22T12:43:42.767Z,27.58
2022-08-22T12:46:28.769Z,27.63
2022-08-22T12:49:23.255Z,27.63
2022-08-22T12:52:04.419Z,27.57
2022-08-22T12:55:07.793Z,27.59
2022-08-22T12:57:43.087Z,27.67
2022-08-22T13:00:27.070Z,27.72
2022-08-22T13:03:02.209Z,27.65
2022-08-22T13:05:37.902Z,27.70
2022-08-22T13:08:13.976Z,27.69
2022-08-22T13:10:48.781Z,27.70
2022-08-22T13:13:31.605Z,27.74
2022-08-22T13:16:08.672Z,27.62
2022-08-22T13:18:47.121Z,27.69
2022-08-22T13:21:31.980Z,27.71
2022-08-22T13:24:10.443Z,27.64
2022-08-22T13:26:49.183Z,27.73
2022-08-22T13:29:26.121Z,27.72
2022-08-22T13:32:01.947Z,27.60
2022-08-22T13:34:40.192Z,27.68
2022-08-22T13:37:17.005Z,27.66
2022-08-22T13:39:49.192Z,27.67
2022-08-22T13:42:30.510Z,27.63
2022-08-22T13:45:04.651Z,27.69
2022-08-22T13:47:39.581Z,27.63
2022-08-22T13:50:15.226Z,27.66
2022-08-22T13:52:55.236Z,27.73
2022-08-22T13:55:35.366Z,27.67
2022-08-22T13:58:12.004Z,27.77
2022-08-22T14:01:17.529Z,27.79
2022-08-22T14:03:50.944Z,27.66
2022-08-22T14:06:35.313Z,27.69
2022-08-22T14:09:23.629Z,27.66
2022-08-22T14:12:13.793Z,27.61
2022-08-22T14:14:46.487Z,27.64
2022-08-22T14:17:21.512Z,27.69
2022-08-22T14:19:59.406Z,27.65
2022-08-22T14:22:34.823Z,27.64
2022-08-22T14:25:09.265Z,27.64
2022-08-22T14:27:44.012Z,27.63
2022-08-22T14:30:19.020Z,27.63
2022-08-22T14:32:52.466Z,27.71
2022-08-22T14:35:33.613Z,27.82
2022-08-22T14:38:27.131Z,27.88
2022-08-22T14:41:03.255Z,27.90
2022-08-22T14:43:57.033Z,27.87
2022-08-22T14:46:31.665Z,28.00
2022-08-22T14:49:28.870Z,27.85
2022-08-22T14:52:07.085Z,27.79
2022-08-22T14:54:38.237Z,27.82
2022-08-22T14:57:20.020Z,27.84
2022-08-22T14:59:52.689Z,27.94
2022-08-22T15:02:27.806Z,27.81
2022-08-22T15:04:57.571Z,27.79
2022-08-22T15:07:31.043Z,27.77
2022-08-22T15:10:03.691Z,27.79
2022-08-22T15:12:38.800Z,27.84
2022-08-22T15:15:12.148Z,27.87
2022-08-22T15:17:44.074Z,27.74
2022-08-22T15:20:28.070Z,27.73
2022-08-22T15:22:59.991Z,27.74
2022-08-22T15:25:33.410Z,27.81
2022-08-22T15:28:14.461Z,27.89
2022-08-22T15:30:54.066Z,28.00
2022-08-22T15:33:25.556Z,28.02
2022-08-22T15:36:07.745Z,27.98
2022-08-22T15:38:42.111Z,27.83
2022-08-22T15:41:42.159Z,27.77
2022-08-22T15:44:32.580Z,27.87
2022-08-22T15:47:10.810Z,27.76
2022-08-22T15:49:50.864Z,27.76
2022-08-22T15:52:27.216Z,27.75
2022-08-22T15:55:24.511Z,27.74
2022-08-22T15:58:06.697Z,27.85
2022-08-22T16:00:41.945Z,27.85
2022-08-22T16:03:25.034Z,27.87
2022-08-22T16:05:56.681Z,27.94
2022-08-22T16:08:33.311Z,27.97
2022-08-22T16:11:33.044Z,27.98
2022-08-22T16:14:25.321Z,28.11
2022-08-22T16:17:01.952Z,27.95
2022-08-22T16:19:31.476Z,27.90
2022-08-22T16:22:16.109Z,27.85
2022-08-22T16:25:03.148Z,27.87
2022-08-22T16:27:32.080Z,27.88
2022-08-22T16:30:16.137Z,27.92
2022-08-22T16:32:58.240Z,27.83
2022-08-22T16:36:03.725Z,27.90
2022-08-22T16:38:41.352Z,27.96
2022-08-22T16:41:35.713Z,27.90
2022-08-22T16:44:41.655Z,27.83
2022-08-22T16:47:14.495Z,27.80
2022-08-22T16:50:00.308Z,27.82
2022-08-22T16:53:06.725Z,27.78
2022-08-22T16:55:51.080Z,27.76
2022-08-22T16:58:59.124Z,27.77
2022-08-22T17:02:03.138Z,27.76
2022-08-22T17:04:41.393Z,27.67
2022-08-22T17:07:23.702Z,27.68
2022-08-22T17:10:23.672Z,27.69
2022-08-22T17:13:17.096Z,27.72
2022-08-22T17:16:01.518Z,27.69
2022-08-22T17:18:49.338Z,27.69
2022-08-22T17:21:26.033Z,27.67
2022-08-22T17:24:05.047Z,27.69
2022-08-22T17:26:49.088Z,27.66
2022-08-22T17:29:33.298Z,27.69
2022-08-22T17:32:15.631Z,27.69
2022-08-22T17:34:53.916Z,27.68
2022-08-22T17:37:27.361Z,27.70
2022-08-22T17:40:15.696Z,27.65
2022-08-22T17:43:01.837Z,27.69
2022-08-22T17:45:42.408Z,27.72
2022-08-22T17:48:19.314Z,27.67
2022-08-22T17:50:54.228Z,27.67
2022-08-22T17:53:38.662Z,27.70
2022-08-22T17:56:19.396Z,27.69
2022-08-22T17:58:55.402Z,27.64
2022-08-22T18:01:40.535Z,27.69
2022-08-22T18:04:17.951Z,27.62
2022-08-22T18:06:56.376Z,27.58
2022-08-22T18:09:34.751Z,27.59
2022-08-22T18:12:16.251Z,27.57
2022-08-22T18:14:53.186Z,27.56
2022-08-22T18:17:29.086Z,27.57
2022-08-22T18:20:08.047Z,27.56
2022-08-22T18:22:45.517Z,27.58
2022-08-22T18:25:34.006Z,27.54
2022-08-22T18:28:11.101Z,27.52
2022-08-22T18:30:53.263Z,27.61
2022-08-22T18:33:31.052Z,27.58
2022-08-22T18:36:10.226Z,27.49
2022-08-22T18:38:50.084Z,27.49
2022-08-22T18:41:27.648Z,27.48
2022-08-22T18:44:00.169Z,27.49
2022-08-22T18:46:47.050Z,27.53
2022-08-22T18:49:54.118Z,27.47
2022-08-22T18:52:35.617Z,27.53
2022-08-22T18:55:33.681Z,27.60
2022-08-22T18:58:16.152Z,27.54
2022-08-22T19:01:00.224Z,27.54
2022-08-22T19:03:41.821Z,27.53
2022-08-22T19:06:36.857Z,27.56
2022-08-22T19:09:25.497Z,27.60
2022-08-22T19:12:04.020Z,27.59
2022-08-22T19:14:50.872Z,27.58
2022-08-22T19:17:40.494Z,27.58
2022-08-22T19:20:32.034Z,27.58
2022-08-22T19:23:41.858Z,27.62
2022-08-22T19:26:27.847Z,27.60
2022-08-22T19:28:59.716Z,27.62
2022-08-22T19:31:45.784Z,27.63
2022-08-22T19:34:28.379Z,27.61
2022-08-22T19:37:32.861Z,27.60
2022-08-22T19:40:05.315Z,27.56
2022-08-22T19:42:36.962Z,27.55
2022-08-22T19:45:19.977Z,27.56
2022-08-22T19:47:58.051Z,27.54
2022-08-22T19:50:33.172Z,27.53
2022-08-22T19:53:28.803Z,27.52
2022-08-22T19:56:09.378Z,27.52
2022-08-22T19:58:50.669Z,27.55
2022-08-22T20:01:40.292Z,27.52
2022-08-22T20:04:20.673Z,27.48
2022-08-22T20:07:02.832Z,27.48
2022-08-22T20:09:44.023Z,27.46
2022-08-22T20:12:17.514Z,27.52
2022-08-22T20:14:48.668Z,27.47
2022-08-22T20:17:40.395Z,27.42
2022-08-22T20:20:17.426Z,27.40
2022-08-22T20:22:52.678Z,27.41
2022-08-22T20:25:42.806Z,27.42
2022-08-22T20:28:29.801Z,27.40
2022-08-22T20:31:01.004Z,27.41
2022-08-22T20:33:32.790Z,27.40
2022-08-22T20:36:05.336Z,27.39
2022-08-22T20:38:39.675Z,27.38
2022-08-22T20:41:20.852Z,27.36
2022-08-22T20:43:53.151Z,27.36
2022-08-22T20:46:33.334Z,27.38
2022-08-22T20:49:02.549Z,27.34
2022-08-22T20:51:31.699Z,27.35
2022-08-22T20:54:01.753Z,27.33
2022-08-22T20:56:52.946Z,27.37
2022-08-22T20:59:31.994Z,27.34
2022-08-22T21:02:11.979Z,27.35
2022-08-22T21:04:48.238Z,27.34
2022-08-22T21:07:23.668Z,27.35
2022-08-22T21:10:22.487Z,27.34
2022-08-22T21:13:20.856Z,27.35
2022-08-22T21:15:51.288Z,27.35
2022-08-22T21:18:29.871Z,27.33
2022-08-22T21:21:12.420Z,27.36
2022-08-22T21:23:48.689Z,27.34
2022-08-22T21:26:26.192Z,27.34
2022-08-22T21:28:58.503Z,27.36
2022-08-22T21:31:29.789Z,27.35
2022-08-22T21:33:59.301Z,27.33
2022-08-22T21:36:30.023Z,27.36
2022-08-22T21:39:01.656Z,27.34
2022-08-22T21:41:39.607Z,27.34
2022-08-22T21:44:36.261Z,27.33
2022-08-22T21:47:30.231Z,27.32
2022-08-22T21:50:06.782Z,27.32
2022-08-22T21:52:37.575Z,27.32
2022-08-22T21:55:26.661Z,27.31
2022-08-22T21:58:10.499Z,27.31
2022-08-22T22:00:49.725Z,27.31
2022-08-22T22:03:20.475Z,27.31
2022-08-22T22:05:50.228Z,27.29
2022-08-22T22:08:19.320Z,27.30
2022-08-22T22:10:48.756Z,27.26
2022-08-22T22:13:20.418Z,27.29
2022-08-22T22:15:53.717Z,27.30
2022-08-22T22:18:25.130Z,27.30
2022-08-22T22:20:55.727Z,27.26
2022-08-22T22:23:25.208Z,27.27
2022-08-22T22:25:54.586Z,27.28
2022-08-22T22:28:26.674Z,27.26
2022-08-22T22:30:55.030Z,27.26
2022-08-22T22:33:25.904Z,27.24
2022-08-22T22:35:56.083Z,27.29
2022-08-22T22:38:24.726Z,27.27
2022-08-22T22:40:52.988Z,27.26
2022-08-22T22:43:21.343Z,27.22
2022-08-22T22:45:50.996Z,27.23
2022-08-22T22:48:24.277Z,27.27
2022-08-22T22:50:53.725Z,27.21
2022-08-22T22:53:33.774Z,27.24
2022-08-22T22:56:09.219Z,27.23
2022-08-22T22:58:38.989Z,27.23
2022-08-22T23:01:13.525Z,27.24
2022-08-22T23:03:42.611Z,27.21
2022-08-22T23:06:13.715Z,27.23
2022-08-22T23:08:42.512Z,27.21
2022-08-22T23:11:13.092Z,27.18
2022-08-22T23:13:43.069Z,27.26
2022-08-22T23:16:16.229Z,27.21
2022-08-22T23:18:44.836Z,27.20
2022-08-22T23:21:16.104Z,27.17
2022-08-22T23:23:45.184Z,27.20
2022-08-22T23:26:14.182Z,27.18
2022-08-22T23:28:42.763Z,27.18
2022-08-22T23:31:15.121Z,27.17
2022-08-22T23:33:44.774Z,27.18
2022-08-22T23:36:14.938Z,27.17
2022-08-22T23:38:43.668Z,27.15
2022-08-22T23:41:13.818Z,27.16
2022-08-22T23:43:43.402Z,27.18
2022-08-22T23:46:14.274Z,27.18
2022-08-22T23:48:42.892Z,27.12
2022-08-22T23:51:11.982Z,27.14
2022-08-22T23:53:40.411Z,27.14
2022-08-22T23:56:19.568Z,27.13
2022-08-22T23:58:49.070Z,27.14
